sensor_id;sensor_type;location;lat;lon;timestamp;pressure;altitude;pressure_sealevel;temperature;humidity
70011;BME280;59543;37.950;-122.338;2023-04-16T00:00:57;101807.28;;;17.65;45.08
70011;BME280;59543;37.950;-122.338;2023-04-16T00:03:24;101805.00;;;17.20;46.00
70011;BME280;59543;37.950;-122.338;2023-04-16T00:05:50;101803.66;;;17.32;45.65
70011;BME280;59543;37.950;-122.338;2023-04-16T00:08:21;101797.75;;;17.53;45.44
70011;BME280;59543;37.950;-122.338;2023-04-16T00:10:50;101801.50;;;17.68;44.73
70011;BME280;59543;37.950;-122.338;2023-04-16T00:13:16;101802.16;;;17.62;43.18
70011;BME280;59543;37.950;-122.338;2023-04-16T00:15:43;101797.91;;;17.59;44.37
70011;BME280;59543;37.950;-122.338;2023-04-16T00:18:09;101792.81;;;17.56;45.49
70011;BME280;59543;37.950;-122.338;2023-04-16T00:20:35;101788.38;;;17.47;46.23
70011;BME280;59543;37.950;-122.338;2023-04-16T00:23:01;101790.09;;;17.73;45.00
70011;BME280;59543;37.950;-122.338;2023-04-16T00:25:28;101788.59;;;17.54;44.84
70011;BME280;59543;37.950;-122.338;2023-04-16T00:27:54;101787.72;;;17.45;46.99
70011;BME280;59543;37.950;-122.338;2023-04-16T00:30:21;101785.84;;;17.46;49.09
70011;BME280;59543;37.950;-122.338;2023-04-16T00:32:47;101799.44;;;17.37;47.30
70011;BME280;59543;37.950;-122.338;2023-04-16T00:35:14;101790.78;;;17.42;48.96
70011;BME280;59543;37.950;-122.338;2023-04-16T00:37:40;101792.78;;;17.16;50.23
70011;BME280;59543;37.950;-122.338;2023-04-16T00:40:07;101792.75;;;17.07;49.98
70011;BME280;59543;37.950;-122.338;2023-04-16T00:42:33;101789.72;;;17.19;50.20
70011;BME280;59543;37.950;-122.338;2023-04-16T00:45:01;101792.25;;;17.20;51.53
70011;BME280;59543;37.950;-122.338;2023-04-16T00:47:47;101791.00;;;16.90;51.62
70011;BME280;59543;37.950;-122.338;2023-04-16T00:50:14;101787.03;;;16.42;52.33
70011;BME280;59543;37.950;-122.338;2023-04-16T00:52:40;101784.72;;;16.55;51.86
70011;BME280;59543;37.950;-122.338;2023-04-16T00:55:07;101790.50;;;16.52;51.68
70011;BME280;59543;37.950;-122.338;2023-04-16T00:57:38;101793.03;;;16.54;52.16
70011;BME280;59543;37.950;-122.338;2023-04-16T01:00:05;101802.75;;;16.64;52.95
70011;BME280;59543;37.950;-122.338;2023-04-16T01:02:32;101791.88;;;16.30;52.85
70011;BME280;59543;37.950;-122.338;2023-04-16T01:05:00;101787.16;;;16.32;53.70
70011;BME280;59543;37.950;-122.338;2023-04-16T01:07:26;101785.91;;;16.27;53.71
70011;BME280;59543;37.950;-122.338;2023-04-16T01:09:52;101788.38;;;16.12;53.91
70011;BME280;59543;37.950;-122.338;2023-04-16T01:12:19;101787.69;;;15.84;54.54
70011;BME280;59543;37.950;-122.338;2023-04-16T01:14:46;101787.19;;;15.88;55.37
70011;BME280;59543;37.950;-122.338;2023-04-16T01:17:12;101784.81;;;15.67;55.21
70011;BME280;59543;37.950;-122.338;2023-04-16T01:19:38;101789.16;;;15.42;56.29
70011;BME280;59543;37.950;-122.338;2023-04-16T01:22:05;101782.56;;;15.45;56.31
70011;BME280;59543;37.950;-122.338;2023-04-16T01:24:31;101787.53;;;15.31;57.13
70011;BME280;59543;37.950;-122.338;2023-04-16T01:26:58;101790.25;;;15.31;57.88
70011;BME280;59543;37.950;-122.338;2023-04-16T01:29:24;101789.63;;;15.20;58.28
70011;BME280;59543;37.950;-122.338;2023-04-16T01:31:51;101787.00;;;14.82;58.47
70011;BME280;59543;37.950;-122.338;2023-04-16T01:34:17;101781.53;;;14.64;59.40
70011;BME280;59543;37.950;-122.338;2023-04-16T01:36:43;101786.84;;;14.47;59.22
70011;BME280;59543;37.950;-122.338;2023-04-16T01:39:10;101790.19;;;14.31;60.07
70011;BME280;59543;37.950;-122.338;2023-04-16T01:41:40;101785.63;;;14.41;60.30
70011;BME280;59543;37.950;-122.338;2023-04-16T01:44:07;101781.09;;;14.22;60.21
70011;BME280;59543;37.950;-122.338;2023-04-16T01:46:34;101784.56;;;14.14;60.82
70011;BME280;59543;37.950;-122.338;2023-04-16T01:49:01;101773.50;;;13.98;61.20
70011;BME280;59543;37.950;-122.338;2023-04-16T01:51:28;101790.75;;;13.87;61.58
70011;BME280;59543;37.950;-122.338;2023-04-16T01:53:54;101789.47;;;13.82;61.54
70011;BME280;59543;37.950;-122.338;2023-04-16T01:56:20;101796.84;;;13.89;61.25
70011;BME280;59543;37.950;-122.338;2023-04-16T01:58:47;101792.63;;;13.58;61.84
70011;BME280;59543;37.950;-122.338;2023-04-16T02:01:13;101788.22;;;13.47;61.95
70011;BME280;59543;37.950;-122.338;2023-04-16T02:03:40;101795.03;;;13.41;62.70
70011;BME280;59543;37.950;-122.338;2023-04-16T02:06:06;101794.63;;;13.46;62.45
70011;BME280;59543;37.950;-122.338;2023-04-16T02:08:32;101796.44;;;13.65;61.31
70011;BME280;59543;37.950;-122.338;2023-04-16T02:10:59;101792.50;;;13.40;61.92
70011;BME280;59543;37.950;-122.338;2023-04-16T02:13:25;101794.84;;;13.14;62.99
70011;BME280;59543;37.950;-122.338;2023-04-16T02:15:52;101799.03;;;12.87;64.29
70011;BME280;59543;37.950;-122.338;2023-04-16T02:18:18;101787.69;;;12.93;64.57
70011;BME280;59543;37.950;-122.338;2023-04-16T02:20:46;101777.31;;;12.79;64.66
70011;BME280;59543;37.950;-122.338;2023-04-16T02:23:14;101791.69;;;12.99;64.51
70011;BME280;59543;37.950;-122.338;2023-04-16T02:25:42;101794.09;;;13.02;64.11
70011;BME280;59543;37.950;-122.338;2023-04-16T02:28:09;101791.66;;;12.89;64.46
70011;BME280;59543;37.950;-122.338;2023-04-16T02:30:36;101788.69;;;12.82;64.73
70011;BME280;59543;37.950;-122.338;2023-04-16T02:33:03;101788.38;;;12.45;66.36
70011;BME280;59543;37.950;-122.338;2023-04-16T02:35:33;101787.53;;;12.45;66.67
70011;BME280;59543;37.950;-122.338;2023-04-16T02:37:59;101796.44;;;12.35;67.21
70011;BME280;59543;37.950;-122.338;2023-04-16T02:40:26;101792.84;;;12.25;66.95
70011;BME280;59543;37.950;-122.338;2023-04-16T02:42:52;101790.28;;;12.24;67.06
70011;BME280;59543;37.950;-122.338;2023-04-16T02:45:20;101799.19;;;11.94;67.91
70011;BME280;59543;37.950;-122.338;2023-04-16T02:47:47;101802.19;;;12.00;67.69
70011;BME280;59543;37.950;-122.338;2023-04-16T02:50:13;101805.66;;;11.70;68.77
70011;BME280;59543;37.950;-122.338;2023-04-16T02:52:40;101806.16;;;11.43;69.60
70011;BME280;59543;37.950;-122.338;2023-04-16T02:55:06;101814.75;;;11.37;70.29
70011;BME280;59543;37.950;-122.338;2023-04-16T02:57:33;101810.22;;;11.37;70.26
70011;BME280;59543;37.950;-122.338;2023-04-16T02:59:59;101815.75;;;11.25;70.42
70011;BME280;59543;37.950;-122.338;2023-04-16T03:02:26;101817.53;;;11.14;71.10
70011;BME280;59543;37.950;-122.338;2023-04-16T03:04:53;101807.03;;;11.00;71.70
70011;BME280;59543;37.950;-122.338;2023-04-16T03:07:19;101806.25;;;11.20;70.81
70011;BME280;59543;37.950;-122.338;2023-04-16T03:09:45;101802.03;;;11.28;70.18
70011;BME280;59543;37.950;-122.338;2023-04-16T03:12:11;101799.84;;;11.21;70.51
70011;BME280;59543;37.950;-122.338;2023-04-16T03:14:37;101810.47;;;10.91;71.38
70011;BME280;59543;37.950;-122.338;2023-04-16T03:17:04;101813.25;;;11.01;71.14
70011;BME280;59543;37.950;-122.338;2023-04-16T03:19:30;101810.00;;;10.74;72.41
70011;BME280;59543;37.950;-122.338;2023-04-16T03:21:56;101813.81;;;10.72;71.63
70011;BME280;59543;37.950;-122.338;2023-04-16T03:24:22;101810.13;;;10.73;70.41
70011;BME280;59543;37.950;-122.338;2023-04-16T03:26:49;101810.88;;;10.75;70.49
70011;BME280;59543;37.950;-122.338;2023-04-16T03:29:15;101805.97;;;10.69;70.81
70011;BME280;59543;37.950;-122.338;2023-04-16T03:31:41;101821.97;;;10.70;70.61
70011;BME280;59543;37.950;-122.338;2023-04-16T03:34:07;101827.34;;;10.93;69.95
70011;BME280;59543;37.950;-122.338;2023-04-16T03:36:33;101825.38;;;10.95;69.71
70011;BME280;59543;37.950;-122.338;2023-04-16T03:39:00;101831.50;;;10.97;69.73
70011;BME280;59543;37.950;-122.338;2023-04-16T03:41:26;101834.94;;;10.88;69.75
70011;BME280;59543;37.950;-122.338;2023-04-16T03:43:52;101832.88;;;10.80;70.06
70011;BME280;59543;37.950;-122.338;2023-04-16T03:46:18;101835.03;;;10.97;70.13
70011;BME280;59543;37.950;-122.338;2023-04-16T03:48:45;101840.47;;;10.75;70.68
70011;BME280;59543;37.950;-122.338;2023-04-16T03:51:11;101835.69;;;10.67;71.29
70011;BME280;59543;37.950;-122.338;2023-04-16T03:53:37;101837.03;;;10.62;71.68
70011;BME280;59543;37.950;-122.338;2023-04-16T03:56:03;101845.00;;;10.63;71.83
70011;BME280;59543;37.950;-122.338;2023-04-16T03:58:30;101844.38;;;10.71;71.85
70011;BME280;59543;37.950;-122.338;2023-04-16T04:00:56;101836.44;;;10.69;72.26
70011;BME280;59543;37.950;-122.338;2023-04-16T04:03:22;101835.59;;;10.69;71.97
70011;BME280;59543;37.950;-122.338;2023-04-16T04:05:48;101848.06;;;10.47;73.11
70011;BME280;59543;37.950;-122.338;2023-04-16T04:08:15;101838.16;;;10.48;73.43
70011;BME280;59543;37.950;-122.338;2023-04-16T04:10:41;101845.72;;;10.43;73.86
70011;BME280;59543;37.950;-122.338;2023-04-16T04:13:07;101846.31;;;10.46;73.90
70011;BME280;59543;37.950;-122.338;2023-04-16T04:15:33;101847.41;;;10.44;74.04
70011;BME280;59543;37.950;-122.338;2023-04-16T04:18:00;101852.31;;;10.61;73.54
70011;BME280;59543;37.950;-122.338;2023-04-16T04:20:26;101857.94;;;10.58;73.57
70011;BME280;59543;37.950;-122.338;2023-04-16T04:22:52;101856.09;;;10.59;73.67
70011;BME280;59543;37.950;-122.338;2023-04-16T04:25:18;101860.28;;;10.63;73.40
70011;BME280;59543;37.950;-122.338;2023-04-16T04:27:44;101856.25;;;10.57;73.82
70011;BME280;59543;37.950;-122.338;2023-04-16T04:30:11;101860.88;;;10.55;73.88
70011;BME280;59543;37.950;-122.338;2023-04-16T04:32:37;101856.25;;;10.57;73.98
70011;BME280;59543;37.950;-122.338;2023-04-16T04:35:03;101866.97;;;10.35;74.83
70011;BME280;59543;37.950;-122.338;2023-04-16T04:37:30;101863.56;;;10.44;74.31
70011;BME280;59543;37.950;-122.338;2023-04-16T04:39:56;101868.94;;;10.44;73.87
70011;BME280;59543;37.950;-122.338;2023-04-16T04:42:23;101876.56;;;10.50;73.83
70011;BME280;59543;37.950;-122.338;2023-04-16T04:44:49;101883.63;;;10.40;73.89
70011;BME280;59543;37.950;-122.338;2023-04-16T04:47:15;101880.09;;;10.50;73.35
70011;BME280;59543;37.950;-122.338;2023-04-16T04:49:42;101888.00;;;10.41;73.96
70011;BME280;59543;37.950;-122.338;2023-04-16T04:52:08;101885.59;;;10.60;71.88
70011;BME280;59543;37.950;-122.338;2023-04-16T04:54:34;101887.31;;;10.61;69.86
70011;BME280;59543;37.950;-122.338;2023-04-16T04:57:01;101895.13;;;10.53;68.53
70011;BME280;59543;37.950;-122.338;2023-04-16T04:59:27;101886.59;;;10.59;67.89
70011;BME280;59543;37.950;-122.338;2023-04-16T05:01:53;101890.44;;;10.44;67.61
70011;BME280;59543;37.950;-122.338;2023-04-16T05:04:20;101899.13;;;10.36;67.81
70011;BME280;59543;37.950;-122.338;2023-04-16T05:06:46;101912.06;;;10.31;67.82
70011;BME280;59543;37.950;-122.338;2023-04-16T05:09:12;101907.06;;;10.26;68.01
70011;BME280;59543;37.950;-122.338;2023-04-16T05:11:39;101910.91;;;10.22;68.35
70011;BME280;59543;37.950;-122.338;2023-04-16T05:14:06;101910.47;;;10.28;68.06
70011;BME280;59543;37.950;-122.338;2023-04-16T05:16:34;101909.94;;;10.12;69.16
70011;BME280;59543;37.950;-122.338;2023-04-16T05:19:01;101908.94;;;10.13;68.37
70011;BME280;59543;37.950;-122.338;2023-04-16T05:21:27;101907.34;;;10.11;68.27
70011;BME280;59543;37.950;-122.338;2023-04-16T05:23:53;101914.13;;;9.92;68.53
70011;BME280;59543;37.950;-122.338;2023-04-16T05:26:20;101915.16;;;10.14;67.57
70011;BME280;59543;37.950;-122.338;2023-04-16T05:28:47;101916.63;;;10.06;68.10
70011;BME280;59543;37.950;-122.338;2023-04-16T05:31:13;101915.16;;;10.02;68.51
70011;BME280;59543;37.950;-122.338;2023-04-16T05:33:40;101914.25;;;9.91;68.69
70011;BME280;59543;37.950;-122.338;2023-04-16T05:36:06;101914.47;;;9.88;68.81
70011;BME280;59543;37.950;-122.338;2023-04-16T05:38:32;101922.88;;;9.83;69.31
70011;BME280;59543;37.950;-122.338;2023-04-16T05:40:58;101905.50;;;9.76;69.45
70011;BME280;59543;37.950;-122.338;2023-04-16T05:43:25;101910.03;;;9.75;69.42
70011;BME280;59543;37.950;-122.338;2023-04-16T05:45:51;101918.09;;;9.75;69.36
70011;BME280;59543;37.950;-122.338;2023-04-16T05:48:17;101917.34;;;9.73;69.57
70011;BME280;59543;37.950;-122.338;2023-04-16T05:50:44;101915.88;;;9.69;69.60
70011;BME280;59543;37.950;-122.338;2023-04-16T05:53:10;101920.81;;;9.62;69.78
70011;BME280;59543;37.950;-122.338;2023-04-16T05:55:38;101919.34;;;9.58;69.92
70011;BME280;59543;37.950;-122.338;2023-04-16T05:58:04;101915.03;;;9.56;70.00
70011;BME280;59543;37.950;-122.338;2023-04-16T06:00:34;101915.28;;;9.53;70.25
70011;BME280;59543;37.950;-122.338;2023-04-16T06:03:01;101917.31;;;9.25;71.79
70011;BME280;59543;37.950;-122.338;2023-04-16T06:05:28;101913.41;;;9.29;71.21
70011;BME280;59543;37.950;-122.338;2023-04-16T06:07:54;101914.06;;;9.33;71.21
70011;BME280;59543;37.950;-122.338;2023-04-16T06:10:21;101907.66;;;9.23;72.01
70011;BME280;59543;37.950;-122.338;2023-04-16T06:12:47;101918.97;;;9.15;72.45
70011;BME280;59543;37.950;-122.338;2023-04-16T06:15:13;101914.75;;;9.11;72.61
70011;BME280;59543;37.950;-122.338;2023-04-16T06:17:42;101914.97;;;9.08;72.10
70011;BME280;59543;37.950;-122.338;2023-04-16T06:20:08;101917.88;;;9.05;72.56
70011;BME280;59543;37.950;-122.338;2023-04-16T06:22:35;101917.38;;;9.00;72.46
70011;BME280;59543;37.950;-122.338;2023-04-16T06:25:01;101913.19;;;8.96;72.76
70011;BME280;59543;37.950;-122.338;2023-04-16T06:27:27;101918.97;;;8.89;73.13
70011;BME280;59543;37.950;-122.338;2023-04-16T06:29:55;101915.75;;;8.84;73.03
70011;BME280;59543;37.950;-122.338;2023-04-16T06:32:21;101924.91;;;8.82;73.67
70011;BME280;59543;37.950;-122.338;2023-04-16T06:34:48;101926.72;;;8.81;73.21
70011;BME280;59543;37.950;-122.338;2023-04-16T06:37:14;101928.66;;;8.79;73.35
70011;BME280;59543;37.950;-122.338;2023-04-16T06:39:40;101932.75;;;8.85;73.42
70011;BME280;59543;37.950;-122.338;2023-04-16T06:42:07;101940.56;;;8.62;74.13
70011;BME280;59543;37.950;-122.338;2023-04-16T06:44:34;101940.56;;;8.62;73.84
70011;BME280;59543;37.950;-122.338;2023-04-16T06:47:01;101939.94;;;8.59;74.63
70011;BME280;59543;37.950;-122.338;2023-04-16T06:49:27;101934.88;;;8.54;74.34
70011;BME280;59543;37.950;-122.338;2023-04-16T06:51:53;101932.53;;;8.62;74.43
70011;BME280;59543;37.950;-122.338;2023-04-16T06:54:19;101938.97;;;8.47;74.75
70011;BME280;59543;37.950;-122.338;2023-04-16T06:56:46;101938.88;;;8.61;73.91
70011;BME280;59543;37.950;-122.338;2023-04-16T06:59:12;101941.88;;;8.69;73.46
70011;BME280;59543;37.950;-122.338;2023-04-16T07:01:38;101943.59;;;8.70;73.75
70011;BME280;59543;37.950;-122.338;2023-04-16T07:04:06;101944.56;;;8.69;73.54
70011;BME280;59543;37.950;-122.338;2023-04-16T07:06:32;101947.47;;;8.66;73.67
70011;BME280;59543;37.950;-122.338;2023-04-16T07:08:58;101955.59;;;8.78;73.41
70011;BME280;59543;37.950;-122.338;2023-04-16T07:11:24;101947.53;;;8.65;73.90
70011;BME280;59543;37.950;-122.338;2023-04-16T07:13:51;101947.34;;;8.68;74.43
70011;BME280;59543;37.950;-122.338;2023-04-16T07:16:18;101946.81;;;8.76;73.30
70011;BME280;59543;37.950;-122.338;2023-04-16T07:18:45;101941.75;;;8.71;73.47
70011;BME280;59543;37.950;-122.338;2023-04-16T07:21:11;101942.72;;;8.70;73.89
70011;BME280;59543;37.950;-122.338;2023-04-16T07:23:37;101943.78;;;8.67;73.71
70011;BME280;59543;37.950;-122.338;2023-04-16T07:26:03;101940.16;;;8.56;74.48
70011;BME280;59543;37.950;-122.338;2023-04-16T07:28:30;101946.91;;;8.49;74.51
70011;BME280;59543;37.950;-122.338;2023-04-16T07:30:56;101947.75;;;8.49;74.79
70011;BME280;59543;37.950;-122.338;2023-04-16T07:33:23;101953.34;;;8.46;74.53
70011;BME280;59543;37.950;-122.338;2023-04-16T07:35:49;101965.47;;;8.52;74.36
70011;BME280;59543;37.950;-122.338;2023-04-16T07:38:16;101964.16;;;8.44;74.55
70011;BME280;59543;37.950;-122.338;2023-04-16T07:40:42;101961.25;;;8.47;74.22
70011;BME280;59543;37.950;-122.338;2023-04-16T07:43:08;101968.66;;;8.57;73.61
70011;BME280;59543;37.950;-122.338;2023-04-16T07:45:35;101972.75;;;8.50;74.13
70011;BME280;59543;37.950;-122.338;2023-04-16T07:48:01;101968.56;;;8.45;73.83
70011;BME280;59543;37.950;-122.338;2023-04-16T07:50:27;101972.34;;;8.29;74.66
70011;BME280;59543;37.950;-122.338;2023-04-16T07:52:53;101952.06;;;8.52;73.16
70011;BME280;59543;37.950;-122.338;2023-04-16T07:55:20;101955.81;;;8.49;72.89
70011;BME280;59543;37.950;-122.338;2023-04-16T07:57:46;101956.66;;;8.50;72.52
70011;BME280;59543;37.950;-122.338;2023-04-16T08:00:12;101951.94;;;8.53;71.78
70011;BME280;59543;37.950;-122.338;2023-04-16T08:02:39;101956.66;;;8.50;72.33
70011;BME280;59543;37.950;-122.338;2023-04-16T08:05:06;101959.97;;;8.40;73.15
70011;BME280;59543;37.950;-122.338;2023-04-16T08:07:32;101956.03;;;8.46;72.46
70011;BME280;59543;37.950;-122.338;2023-04-16T08:09:59;101956.31;;;8.41;72.39
70011;BME280;59543;37.950;-122.338;2023-04-16T08:12:25;101955.22;;;8.31;72.51
70011;BME280;59543;37.950;-122.338;2023-04-16T08:14:51;101956.69;;;8.22;73.31
70011;BME280;59543;37.950;-122.338;2023-04-16T08:17:17;101955.19;;;8.18;72.85
70011;BME280;59543;37.950;-122.338;2023-04-16T08:19:44;101955.28;;;8.17;73.09
70011;BME280;59543;37.950;-122.338;2023-04-16T08:22:13;101949.06;;;8.16;73.56
70011;BME280;59543;37.950;-122.338;2023-04-16T08:24:39;101946.66;;;7.99;73.84
70011;BME280;59543;37.950;-122.338;2023-04-16T08:27:05;101939.59;;;7.98;74.20
70011;BME280;59543;37.950;-122.338;2023-04-16T08:29:32;101943.41;;;7.94;74.00
70011;BME280;59543;37.950;-122.338;2023-04-16T08:31:58;101938.75;;;7.97;73.57
70011;BME280;59543;37.950;-122.338;2023-04-16T08:34:25;101944.84;;;7.99;73.90
70011;BME280;59543;37.950;-122.338;2023-04-16T08:36:51;101944.16;;;7.83;74.81
70011;BME280;59543;37.950;-122.338;2023-04-16T08:39:17;101938.47;;;7.88;74.53
70011;BME280;59543;37.950;-122.338;2023-04-16T08:41:45;101942.31;;;7.84;75.38
70011;BME280;59543;37.950;-122.338;2023-04-16T08:44:26;101925.00;;;7.89;75.59
70011;BME280;59543;37.950;-122.338;2023-04-16T08:46:54;101922.66;;;7.97;74.96
70011;BME280;59543;37.950;-122.338;2023-04-16T08:49:26;101920.06;;;7.96;74.79
70011;BME280;59543;37.950;-122.338;2023-04-16T08:51:55;101920.25;;;7.80;76.00
70011;BME280;59543;37.950;-122.338;2023-04-16T08:54:30;101922.94;;;7.80;76.15
70011;BME280;59543;37.950;-122.338;2023-04-16T08:56:58;101911.84;;;7.72;76.54
70011;BME280;59543;37.950;-122.338;2023-04-16T08:59:25;101914.31;;;7.75;76.12
70011;BME280;59543;37.950;-122.338;2023-04-16T09:01:56;101919.31;;;7.67;76.59
70011;BME280;59543;37.950;-122.338;2023-04-16T09:04:25;101913.88;;;7.68;76.25
70011;BME280;59543;37.950;-122.338;2023-04-16T09:06:54;101916.19;;;7.60;76.63
70011;BME280;59543;37.950;-122.338;2023-04-16T09:09:21;101911.16;;;7.55;76.77
70011;BME280;59543;37.950;-122.338;2023-04-16T09:11:55;101912.09;;;7.54;76.63
70011;BME280;59543;37.950;-122.338;2023-04-16T09:14:21;101912.81;;;7.44;77.08
70011;BME280;59543;37.950;-122.338;2023-04-16T09:16:48;101910.69;;;7.49;76.75
70011;BME280;59543;37.950;-122.338;2023-04-16T09:19:18;101912.44;;;7.36;77.07
70011;BME280;59543;37.950;-122.338;2023-04-16T09:21:44;101914.91;;;6.97;77.88
70011;BME280;59543;37.950;-122.338;2023-04-16T09:24:11;101909.47;;;6.99;77.76
70011;BME280;59543;37.950;-122.338;2023-04-16T09:26:38;101914.44;;;7.05;77.54
70011;BME280;59543;37.950;-122.338;2023-04-16T09:29:06;101905.75;;;7.01;77.26
70011;BME280;59543;37.950;-122.338;2023-04-16T09:31:34;101914.63;;;6.87;77.82
70011;BME280;59543;37.950;-122.338;2023-04-16T09:34:02;101902.59;;;6.80;77.77
70011;BME280;59543;37.950;-122.338;2023-04-16T09:36:29;101891.72;;;6.55;78.82
70011;BME280;59543;37.950;-122.338;2023-04-16T09:38:57;101895.63;;;6.35;79.96
70011;BME280;59543;37.950;-122.338;2023-04-16T09:41:29;101888.81;;;6.15;80.85
70011;BME280;59543;37.950;-122.338;2023-04-16T09:43:57;101893.13;;;6.02;81.25
70011;BME280;59543;37.950;-122.338;2023-04-16T09:46:34;101886.72;;;6.20;80.88
70011;BME280;59543;37.950;-122.338;2023-04-16T09:49:08;101886.59;;;6.22;80.35
70011;BME280;59543;37.950;-122.338;2023-04-16T09:51:40;101884.28;;;6.01;81.69
70011;BME280;59543;37.950;-122.338;2023-04-16T09:54:07;101886.59;;;5.91;81.99
70011;BME280;59543;37.950;-122.338;2023-04-16T09:56:41;101882.06;;;5.93;83.09
70011;BME280;59543;37.950;-122.338;2023-04-16T09:59:41;101876.66;;;6.09;82.04
70011;BME280;59543;37.950;-122.338;2023-04-16T10:02:01;101873.06;;;6.25;82.08
70011;BME280;59543;37.950;-122.338;2023-04-16T10:04:26;101873.28;;;6.36;81.42
70011;BME280;59543;37.950;-122.338;2023-04-16T10:07:05;101866.97;;;6.37;81.50
70011;BME280;59543;37.950;-122.338;2023-04-16T10:09:41;101869.94;;;6.61;80.50
70011;BME280;59543;37.950;-122.338;2023-04-16T10:12:08;101870.41;;;6.68;80.55
70011;BME280;59543;37.950;-122.338;2023-04-16T10:14:35;101875.94;;;6.79;79.85
70011;BME280;59543;37.950;-122.338;2023-04-16T10:17:02;101882.72;;;6.84;80.08
70011;BME280;59543;37.950;-122.338;2023-04-16T10:19:31;101880.78;;;7.01;79.02
70011;BME280;59543;37.950;-122.338;2023-04-16T10:21:58;101882.59;;;7.00;79.36
70011;BME280;59543;37.950;-122.338;2023-04-16T10:24:25;101878.09;;;7.01;79.23
70011;BME280;59543;37.950;-122.338;2023-04-16T10:26:51;101882.06;;;6.95;79.51
70011;BME280;59543;37.950;-122.338;2023-04-16T10:29:22;101884.81;;;7.08;78.91
70011;BME280;59543;37.950;-122.338;2023-04-16T10:31:49;101892.22;;;7.17;77.93
70011;BME280;59543;37.950;-122.338;2023-04-16T10:34:17;101887.16;;;7.13;78.93
70011;BME280;59543;37.950;-122.338;2023-04-16T10:36:51;101895.03;;;7.01;79.01
70011;BME280;59543;37.950;-122.338;2023-04-16T10:39:22;101896.09;;;6.99;78.71
70011;BME280;59543;37.950;-122.338;2023-04-16T10:41:49;101892.66;;;6.82;79.06
70011;BME280;59543;37.950;-122.338;2023-04-16T10:44:17;101897.44;;;6.77;78.33
70011;BME280;59543;37.950;-122.338;2023-04-16T10:46:46;101902.97;;;6.60;78.78
70011;BME280;59543;37.950;-122.338;2023-04-16T10:49:19;101906.63;;;6.59;78.22
70011;BME280;59543;37.950;-122.338;2023-04-16T10:51:59;101896.38;;;6.51;78.23
70011;BME280;59543;37.950;-122.338;2023-04-16T10:54:30;101909.19;;;5.86;80.69
70011;BME280;59543;37.950;-122.338;2023-04-16T10:57:03;101907.97;;;5.91;81.20
70011;BME280;59543;37.950;-122.338;2023-04-16T10:59:31;101903.34;;;5.95;82.09
70011;BME280;59543;37.950;-122.338;2023-04-16T11:02:01;101910.06;;;6.02;81.11
70011;BME280;59543;37.950;-122.338;2023-04-16T11:04:37;101907.94;;;6.07;80.60
70011;BME280;59543;37.950;-122.338;2023-04-16T11:07:15;101911.34;;;5.95;81.07
70011;BME280;59543;37.950;-122.338;2023-04-16T11:12:32;101907.28;;;5.88;81.63
70011;BME280;59543;37.950;-122.338;2023-04-16T11:15:02;101902.91;;;5.87;81.95
70011;BME280;59543;37.950;-122.338;2023-04-16T11:17:46;101896.69;;;5.86;81.74
70011;BME280;59543;37.950;-122.338;2023-04-16T11:20:24;101896.28;;;5.94;81.77
70011;BME280;59543;37.950;-122.338;2023-04-16T11:22:52;101899.19;;;5.89;82.18
70011;BME280;59543;37.950;-122.338;2023-04-16T11:25:20;101893.44;;;5.81;81.62
70011;BME280;59543;37.950;-122.338;2023-04-16T11:27:48;101899.75;;;6.10;81.29
70011;BME280;59543;37.950;-122.338;2023-04-16T11:30:14;101886.97;;;6.15;81.27
70011;BME280;59543;37.950;-122.338;2023-04-16T11:32:40;101893.72;;;6.07;81.07
70011;BME280;59543;37.950;-122.338;2023-04-16T11:35:14;101895.47;;;6.08;80.93
70011;BME280;59543;37.950;-122.338;2023-04-16T11:37:40;101893.72;;;6.07;81.52
70011;BME280;59543;37.950;-122.338;2023-04-16T11:40:08;101892.63;;;6.11;81.15
70011;BME280;59543;37.950;-122.338;2023-04-16T11:42:35;101892.91;;;6.21;82.51
70011;BME280;59543;37.950;-122.338;2023-04-16T11:45:02;101895.91;;;6.45;81.54
70011;BME280;59543;37.950;-122.338;2023-04-16T11:47:30;101892.66;;;6.39;81.18
70011;BME280;59543;37.950;-122.338;2023-04-16T11:49:57;101897.34;;;6.36;81.16
70011;BME280;59543;37.950;-122.338;2023-04-16T11:52:28;101903.72;;;6.33;81.05
70011;BME280;59543;37.950;-122.338;2023-04-16T11:54:55;101905.19;;;6.53;81.32
70011;BME280;59543;37.950;-122.338;2023-04-16T11:57:29;101905.19;;;6.53;81.35
70011;BME280;59543;37.950;-122.338;2023-04-16T11:59:58;101902.50;;;6.68;81.67
70011;BME280;59543;37.950;-122.338;2023-04-16T12:02:44;101900.88;;;6.79;80.69
70011;BME280;59543;37.950;-122.338;2023-04-16T12:05:35;101908.63;;;6.84;80.25
70011;BME280;59543;37.950;-122.338;2023-04-16T12:08:05;101914.16;;;6.81;80.97
70011;BME280;59543;37.950;-122.338;2023-04-16T12:10:34;101913.00;;;6.85;80.30
70011;BME280;59543;37.950;-122.338;2023-04-16T12:13:15;101912.91;;;6.86;80.65
70011;BME280;59543;37.950;-122.338;2023-04-16T12:15:46;101917.97;;;6.91;80.08
70011;BME280;59543;37.950;-122.338;2023-04-16T12:18:12;101928.09;;;7.00;79.63
70011;BME280;59543;37.950;-122.338;2023-04-16T12:20:41;101918.03;;;7.04;79.40
70011;BME280;59543;37.950;-122.338;2023-04-16T12:23:07;101928.19;;;6.99;79.49
70011;BME280;59543;37.950;-122.338;2023-04-16T12:25:34;101924.81;;;7.09;79.00
70011;BME280;59543;37.950;-122.338;2023-04-16T12:28:01;101929.31;;;7.09;79.23
70011;BME280;59543;37.950;-122.338;2023-04-16T12:30:27;101931.53;;;7.17;78.94